createdAt,value
2019-02-17T00:00:11.439Z,50.73
2019-02-17T00:02:38.494Z,51.03
2019-02-17T00:05:05.740Z,52.43
2019-02-17T00:07:32.551Z,44.70
2019-02-17T00:09:59.282Z,51.90
2019-02-17T00:12:26.123Z,56.67
2019-02-17T00:14:52.660Z,54.50
2019-02-17T00:17:19.195Z,51.93
2019-02-17T00:19:45.726Z,54.30
2019-02-17T00:22:12.568Z,52.10
2019-02-17T00:24:39.104Z,53.60
2019-02-17T00:27:05.641Z,52.83
2019-02-17T00:29:32.173Z,56.33
2019-02-17T00:31:58.706Z,54.70
2019-02-17T00:34:25.242Z,51.67
2019-02-17T00:36:52.391Z,57.90
2019-02-17T00:39:19.235Z,51.10
2019-02-17T00:41:45.806Z,56.50
2019-02-17T00:44:12.610Z,61.40
2019-02-17T00:46:39.454Z,57.47
2019-02-17T00:49:06.336Z,54.53
2019-02-17T00:51:33.140Z,62.10
2019-02-17T00:53:59.674Z,53.40
2019-02-17T00:56:26.201Z,60.07
2019-02-17T00:58:52.747Z,55.30
2019-02-17T01:01:19.585Z,61.37
2019-02-17T01:03:46.115Z,57.70
2019-02-17T01:06:12.649Z,57.03
2019-02-17T01:08:39.499Z,54.17
2019-02-17T01:11:06.334Z,59.00
2019-02-17T01:13:33.177Z,59.07
2019-02-17T01:15:59.716Z,62.00
2019-02-17T01:18:26.243Z,65.13
2019-02-17T01:20:52.788Z,56.33
2019-02-17T01:23:19.359Z,57.47
2019-02-17T01:25:46.157Z,58.07
2019-02-17T01:28:12.996Z,56.47
2019-02-17T01:30:41.581Z,60.03
2019-02-17T01:33:08.544Z,57.47
2019-02-17T01:35:35.058Z,59.63
2019-02-17T01:38:02.572Z,52.80
2019-02-17T01:40:29.356Z,57.50
2019-02-17T01:42:56.922Z,51.87
2019-02-17T01:45:23.439Z,56.60
2019-02-17T01:47:50.677Z,53.80
2019-02-17T01:50:18.244Z,60.70
2019-02-17T01:52:44.791Z,57.57
2019-02-17T01:55:11.633Z,54.00
2019-02-17T01:57:38.165Z,57.63
2019-02-17T02:00:04.704Z,59.40
2019-02-17T02:02:31.547Z,55.67
2019-02-17T02:04:58.695Z,58.07
2019-02-17T02:07:25.230Z,57.77
2019-02-17T02:09:51.761Z,56.53
2019-02-17T02:12:19.215Z,55.17
2019-02-17T02:14:46.066Z,58.03
2019-02-17T02:17:13.354Z,54.10
2019-02-17T02:19:40.047Z,56.07
2019-02-17T02:22:07.091Z,59.63
2019-02-17T02:24:33.729Z,58.57
2019-02-17T02:27:00.577Z,56.33
2019-02-17T02:29:27.116Z,57.93
2019-02-17T02:31:53.642Z,60.23
2019-02-17T02:34:20.883Z,54.13
2019-02-17T02:36:47.629Z,56.77
2019-02-17T02:39:15.093Z,55.53
2019-02-17T02:41:42.242Z,59.23
2019-02-17T02:44:09.079Z,59.90
2019-02-17T02:46:35.737Z,56.90
2019-02-17T02:49:02.453Z,59.70
2019-02-17T02:51:30.510Z,53.57
2019-02-17T02:53:57.366Z,53.07
2019-02-17T02:56:23.901Z,58.50
2019-02-17T02:58:50.436Z,58.53
2019-02-17T03:01:17.275Z,53.77
2019-02-17T03:03:46.007Z,50.37
2019-02-17T03:06:12.484Z,54.47
2019-02-17T03:08:39.034Z,55.33
2019-02-17T03:11:05.871Z,52.47
2019-02-17T03:13:32.407Z,55.40
2019-02-17T03:15:58.948Z,54.97
2019-02-17T03:18:25.780Z,54.37
2019-02-17T03:20:53.572Z,56.27
2019-02-17T03:23:20.390Z,52.47
2019-02-17T03:25:46.933Z,61.13
2019-02-17T03:28:13.766Z,55.33
2019-02-17T03:30:40.305Z,52.10
2019-02-17T03:33:07.463Z,55.43
2019-02-17T03:35:34.141Z,54.60
2019-02-17T03:38:00.823Z,55.37
2019-02-17T03:40:27.685Z,57.17
2019-02-17T03:42:54.197Z,51.70
2019-02-17T03:45:21.041Z,54.37
2019-02-17T03:47:47.556Z,55.30
2019-02-17T03:50:14.128Z,57.47
2019-02-17T03:52:41.287Z,65.90
2019-02-17T03:55:08.102Z,53.33
2019-02-17T03:57:34.999Z,51.10
2019-02-17T04:00:02.087Z,47.53
2019-02-17T04:02:28.635Z,55.00
2019-02-17T04:04:55.780Z,51.57
2019-02-17T04:07:23.231Z,47.93
2019-02-17T04:09:49.768Z,52.23
2019-02-17T04:12:16.308Z,48.23
2019-02-17T04:14:43.139Z,49.60
2019-02-17T04:17:09.984Z,54.17
2019-02-17T04:19:36.514Z,50.03
2019-02-17T04:22:04.074Z,50.57
2019-02-17T04:24:30.813Z,50.50
2019-02-17T04:26:57.355Z,50.03
2019-02-17T04:29:24.234Z,50.27
2019-02-17T04:31:51.528Z,51.33
2019-02-17T04:34:18.189Z,56.43
2019-02-17T04:36:44.719Z,51.23
2019-02-17T04:39:11.249Z,55.13
2019-02-17T04:41:39.409Z,54.50
2019-02-17T04:44:06.467Z,56.77
2019-02-17T04:46:33.016Z,51.43
2019-02-17T04:48:59.846Z,52.67
2019-02-17T04:51:26.381Z,54.37
2019-02-17T04:53:53.219Z,49.93
2019-02-17T04:56:19.755Z,53.40
2019-02-17T04:58:46.306Z,51.30
2019-02-17T05:01:12.827Z,49.67
2019-02-17T05:03:39.670Z,53.73
2019-02-17T05:06:06.508Z,53.60
2019-02-17T05:08:33.063Z,54.70
2019-02-17T05:10:59.884Z,55.27
2019-02-17T05:13:26.420Z,50.43
2019-02-17T05:15:53.258Z,50.43
2019-02-17T05:18:20.103Z,55.37
2019-02-17T05:20:46.638Z,55.93
2019-02-17T05:23:13.170Z,50.33
2019-02-17T05:25:39.707Z,53.10
2019-02-17T05:28:06.563Z,50.60
2019-02-17T05:30:33.388Z,52.70
2019-02-17T05:32:59.929Z,57.20
2019-02-17T05:35:26.544Z,53.63
2019-02-17T05:37:53.304Z,45.77
2019-02-17T05:40:20.158Z,51.83
2019-02-17T05:42:46.996Z,53.53
2019-02-17T05:45:13.518Z,49.90
2019-02-17T05:47:40.358Z,54.97
2019-02-17T05:50:06.939Z,55.83
2019-02-17T05:52:33.733Z,51.13
2019-02-17T05:55:00.577Z,52.10
2019-02-17T05:57:27.114Z,55.33
2019-02-17T05:59:53.656Z,54.00
2019-02-17T06:02:20.201Z,61.53
2019-02-17T06:04:47.020Z,55.43
2019-02-17T06:07:13.871Z,51.23
2019-02-17T06:09:40.399Z,48.37
2019-02-17T06:12:07.286Z,53.10
2019-02-17T06:14:34.083Z,51.40
2019-02-17T06:17:00.654Z,47.43
2019-02-17T06:19:27.511Z,49.03
2019-02-17T06:21:54.299Z,55.73
2019-02-17T06:24:20.860Z,48.63
2019-02-17T06:26:47.685Z,48.93
2019-02-17T06:29:14.277Z,49.60
2019-02-17T06:31:41.142Z,47.83
2019-02-17T06:34:07.891Z,46.83
2019-02-17T06:36:34.436Z,49.63
2019-02-17T06:39:00.967Z,50.20
2019-02-17T06:41:27.500Z,49.13
2019-02-17T06:43:54.338Z,46.17
2019-02-17T06:46:20.893Z,48.33
2019-02-17T06:48:47.408Z,47.70
2019-02-17T06:51:13.948Z,47.00
2019-02-17T06:53:40.783Z,53.33
2019-02-17T06:56:09.058Z,50.83
2019-02-17T06:58:35.702Z,54.47
2019-02-17T07:01:02.235Z,51.03
2019-02-17T07:03:29.074Z,48.60
2019-02-17T07:05:56.818Z,49.33
2019-02-17T07:08:24.031Z,49.83
2019-02-17T07:10:50.826Z,50.03
2019-02-17T07:13:17.360Z,46.63
2019-02-17T07:15:44.204Z,49.20
2019-02-17T07:18:11.129Z,51.03
2019-02-17T07:20:37.867Z,44.37
2019-02-17T07:23:04.450Z,44.07
2019-02-17T07:25:30.959Z,49.77
2019-02-17T07:27:57.492Z,43.43
2019-02-17T07:30:24.334Z,52.23
2019-02-17T07:32:51.174Z,48.80
2019-02-17T07:35:17.705Z,47.03
2019-02-17T07:37:44.356Z,52.40
2019-02-17T07:40:10.879Z,46.93
2019-02-17T07:42:37.623Z,49.20
2019-02-17T07:45:04.458Z,46.23
2019-02-17T07:47:30.995Z,46.03
2019-02-17T07:49:57.529Z,44.83
2019-02-17T07:52:24.065Z,46.40
2019-02-17T07:54:50.745Z,46.17
2019-02-17T07:57:17.440Z,43.83
2019-02-17T07:59:44.187Z,47.73
2019-02-17T08:02:10.816Z,42.90
2019-02-17T08:04:38.272Z,45.03
2019-02-17T08:07:04.894Z,49.97
2019-02-17T08:09:31.647Z,52.17
2019-02-17T08:11:58.492Z,54.53
2019-02-17T08:14:25.349Z,50.17
2019-02-17T08:16:52.559Z,43.60
2019-02-17T08:19:19.263Z,52.10
2019-02-17T08:21:46.163Z,46.53
2019-02-17T08:24:13.517Z,50.20
2019-02-17T08:26:40.152Z,44.20
2019-02-17T08:29:07.326Z,46.27
2019-02-17T08:31:34.450Z,46.27
2019-02-17T08:34:01.294Z,93.27
2019-02-17T08:36:28.132Z,96.70
2019-02-17T08:38:54.674Z,93.83
2019-02-17T08:41:21.513Z,92.80
2019-02-17T08:43:48.046Z,91.97
2019-02-17T08:46:14.581Z,90.50
2019-02-17T08:48:41.418Z,87.17
2019-02-17T08:51:08.263Z,83.93
2019-02-17T08:53:34.796Z,76.37
2019-02-17T08:56:01.335Z,79.63
2019-02-17T08:58:27.867Z,71.67
2019-02-17T09:00:54.707Z,66.77
2019-02-17T09:03:22.729Z,57.83
2019-02-17T09:05:49.619Z,61.97
2019-02-17T09:08:16.461Z,65.70
2019-02-17T09:10:42.997Z,56.53
2019-02-17T09:13:09.835Z,56.97
2019-02-17T09:15:36.373Z,58.03
2019-02-17T09:18:02.912Z,51.20
2019-02-17T09:20:29.480Z,50.33
2019-02-17T09:22:55.975Z,55.97
2019-02-17T09:25:22.887Z,49.90
2019-02-17T09:27:49.662Z,61.60
2019-02-17T09:30:16.516Z,62.40
2019-02-17T09:32:43.042Z,62.63
2019-02-17T09:35:09.569Z,58.60
2019-02-17T09:37:36.106Z,64.57
2019-02-17T09:40:02.943Z,55.00
2019-02-17T09:42:29.786Z,55.40
2019-02-17T09:44:56.322Z,55.80
2019-02-17T09:47:22.855Z,57.70
2019-02-17T09:49:49.695Z,52.23
2019-02-17T09:52:16.233Z,48.97
2019-02-17T09:54:42.770Z,51.10
2019-02-17T09:57:09.299Z,46.43
2019-02-17T09:59:36.144Z,41.83
2019-02-17T10:02:02.676Z,49.00
2019-02-17T10:04:29.211Z,49.13
2019-02-17T10:06:55.747Z,43.03
2019-02-17T10:09:22.282Z,44.57
2019-02-17T10:11:49.430Z,42.63
2019-02-17T10:14:15.961Z,38.40
2019-02-17T10:16:42.498Z,38.83
2019-02-17T10:19:09.340Z,38.60
2019-02-17T10:21:35.881Z,39.30
2019-02-17T10:24:02.797Z,39.20
2019-02-17T10:26:29.554Z,34.77
2019-02-17T10:28:56.504Z,37.73
2019-02-17T10:31:23.243Z,31.87
2019-02-17T10:33:49.775Z,34.60
2019-02-17T10:36:16.619Z,30.87
2019-02-17T10:38:43.149Z,34.10
2019-02-17T10:41:09.991Z,30.33
2019-02-17T10:43:36.835Z,27.53
2019-02-17T10:46:03.367Z,26.83
2019-02-17T10:48:29.910Z,30.97
2019-02-17T10:50:56.742Z,27.53
2019-02-17T10:53:23.282Z,25.07
2019-02-17T10:55:49.816Z,30.73
2019-02-17T10:58:16.653Z,28.80
2019-02-17T11:00:43.507Z,27.85
2019-02-17T11:03:10.035Z,24.13
2019-02-17T11:05:36.871Z,25.17
2019-02-17T11:08:03.406Z,23.60
2019-02-17T11:10:30.246Z,25.67
2019-02-17T11:12:57.088Z,25.27
2019-02-17T11:15:23.623Z,25.13
2019-02-17T11:17:50.466Z,24.40
2019-02-17T11:20:17.307Z,25.77
2019-02-17T11:22:43.847Z,24.43
2019-02-17T11:25:10.380Z,25.50
2019-02-17T11:27:37.218Z,27.70
2019-02-17T11:30:05.444Z,26.00
2019-02-17T11:32:32.382Z,23.57
2019-02-17T11:34:59.279Z,24.23
2019-02-17T11:37:25.811Z,29.80
2019-02-17T11:39:52.653Z,28.13
2019-02-17T11:42:19.486Z,28.90
2019-02-17T11:44:46.030Z,24.63
2019-02-17T11:47:12.566Z,27.20
2019-02-17T11:49:39.424Z,74.15
2019-02-17T11:52:05.943Z,49.48
2019-02-17T11:54:32.782Z,38.28
2019-02-17T11:56:59.624Z,31.65
2019-02-17T11:59:26.157Z,34.48
2019-02-17T12:01:52.692Z,28.55
2019-02-17T12:04:19.226Z,26.95
2019-02-17T12:06:46.071Z,28.05
2019-02-17T12:09:12.912Z,28.52
2019-02-17T12:11:39.757Z,24.32
2019-02-17T12:14:06.287Z,20.97
2019-02-17T12:16:36.920Z,23.18
2019-02-17T12:19:01.198Z,23.25
2019-02-17T12:21:27.738Z,24.45
2019-02-17T12:23:54.266Z,23.87
2019-02-17T12:26:21.415Z,23.13
2019-02-17T12:28:48.014Z,24.90
2019-02-17T12:31:14.795Z,21.60
2019-02-17T12:33:41.328Z,19.27
2019-02-17T12:36:08.168Z,20.65
2019-02-17T12:38:34.892Z,22.27
2019-02-17T12:41:01.547Z,21.52
2019-02-17T12:43:28.082Z,22.27
2019-02-17T12:45:54.620Z,28.38
2019-02-17T12:48:21.454Z,17.45
2019-02-17T12:50:47.990Z,17.77
2019-02-17T12:53:14.525Z,17.77
2019-02-17T12:55:41.364Z,19.40
2019-02-17T12:58:08.226Z,19.98
2019-02-17T13:00:34.739Z,18.50
2019-02-17T13:03:01.583Z,21.37
2019-02-17T13:05:28.121Z,17.10
2019-02-17T13:07:54.652Z,18.77
2019-02-17T13:10:21.492Z,14.53
2019-02-17T13:12:48.026Z,13.80
2019-02-17T13:15:14.870Z,20.32
2019-02-17T13:17:41.710Z,15.00
2019-02-17T13:20:08.244Z,13.90
2019-02-17T13:22:34.779Z,16.17
2019-02-17T13:25:01.396Z,16.80
2019-02-17T13:27:28.155Z,18.00
2019-02-17T13:29:54.691Z,14.45
2019-02-17T13:32:21.532Z,13.98
2019-02-17T13:34:48.072Z,16.10
2019-02-17T13:37:14.609Z,19.30
2019-02-17T13:39:41.434Z,14.53
2019-02-17T13:42:07.983Z,13.22
2019-02-17T13:44:34.510Z,14.50
2019-02-17T13:47:01.354Z,14.83
2019-02-17T13:49:27.885Z,15.00
2019-02-17T13:51:54.727Z,17.70
2019-02-17T13:54:21.569Z,13.45
2019-02-17T13:56:48.106Z,14.38
2019-02-17T13:59:14.640Z,11.75
2019-02-17T14:01:41.479Z,12.37
2019-02-17T14:04:08.014Z,12.20
2019-02-17T14:06:34.861Z,12.50
2019-02-17T14:09:01.471Z,9.93
2019-02-17T14:11:28.232Z,14.03
2019-02-17T14:13:54.767Z,12.23
2019-02-17T14:16:21.595Z,12.07
2019-02-17T14:18:48.144Z,12.88
2019-02-17T14:21:14.985Z,14.00
2019-02-17T14:23:41.827Z,10.65
2019-02-17T14:26:08.365Z,15.15
2019-02-17T14:28:34.895Z,12.37
2019-02-17T14:31:01.739Z,12.67
2019-02-17T14:33:28.272Z,13.85
2019-02-17T14:35:54.805Z,11.80
2019-02-17T14:38:21.647Z,10.50
2019-02-17T14:40:48.315Z,11.20
2019-02-17T14:43:15.024Z,13.63
2019-02-17T14:45:41.863Z,12.13
2019-02-17T14:48:08.715Z,7.65
2019-02-17T14:50:35.555Z,15.20
2019-02-17T14:53:02.390Z,12.40
2019-02-17T14:55:29.464Z,10.55
2019-02-17T14:58:04.978Z,13.25
2019-02-17T15:00:24.449Z,10.10
2019-02-17T15:02:51.295Z,8.67
2019-02-17T15:05:18.134Z,11.50
2019-02-17T15:07:44.975Z,14.18
2019-02-17T15:10:12.738Z,12.57
2019-02-17T15:12:39.273Z,11.63
2019-02-17T15:15:06.103Z,8.87
2019-02-17T15:17:32.649Z,10.97
2019-02-17T15:19:59.183Z,12.43
2019-02-17T15:22:26.027Z,12.50
2019-02-17T15:24:52.563Z,11.23
2019-02-17T15:27:19.407Z,10.53
2019-02-17T15:29:46.244Z,11.37
2019-02-17T15:32:13.086Z,12.10
2019-02-17T15:34:39.926Z,13.30
2019-02-17T15:37:07.099Z,11.67
2019-02-17T15:39:33.619Z,12.70
2019-02-17T15:42:00.150Z,12.77
2019-02-17T15:44:27.009Z,14.17
2019-02-17T15:46:53.520Z,14.70
2019-02-17T15:49:20.666Z,18.13
2019-02-17T15:51:47.207Z,20.03
2019-02-17T15:54:13.784Z,14.37
2019-02-17T15:56:43.759Z,19.53
2019-02-17T15:59:11.767Z,16.77
2019-02-17T16:01:38.563Z,15.30
2019-02-17T16:04:05.099Z,12.43
2019-02-17T16:06:31.944Z,14.63
2019-02-17T16:08:58.475Z,16.20
2019-02-17T16:11:25.009Z,18.23
2019-02-17T16:13:51.545Z,16.03
2019-02-17T16:16:18.480Z,17.83
2019-02-17T16:18:45.225Z,12.57
2019-02-17T16:21:12.053Z,14.23
2019-02-17T16:23:38.911Z,16.87
2019-02-17T16:26:05.741Z,13.90
2019-02-17T16:28:32.592Z,15.77
2019-02-17T16:30:59.743Z,18.67
2019-02-17T16:33:26.585Z,13.60
2019-02-17T16:35:53.130Z,14.47
2019-02-17T16:38:19.973Z,13.43
2019-02-17T16:40:47.066Z,16.37
2019-02-17T16:43:13.954Z,23.07
2019-02-17T16:45:40.781Z,15.67
2019-02-17T16:48:07.326Z,20.50
2019-02-17T16:50:33.863Z,21.70
2019-02-17T16:53:00.440Z,19.83
2019-02-17T16:55:27.239Z,23.10
2019-02-17T16:57:54.085Z,19.20
2019-02-17T17:00:20.635Z,18.60
2019-02-17T17:02:47.454Z,18.67
2019-02-17T17:05:13.987Z,22.83
2019-02-17T17:07:40.536Z,20.23
2019-02-17T17:10:07.365Z,20.83
2019-02-17T17:12:33.898Z,19.93
2019-02-17T17:15:00.433Z,21.97
2019-02-17T17:17:27.279Z,16.70
2019-02-17T17:19:54.118Z,22.50
2019-02-17T17:22:21.640Z,18.93
2019-02-17T17:24:48.721Z,21.60
2019-02-17T17:27:15.258Z,25.53
2019-02-17T17:29:41.800Z,20.40
2019-02-17T17:32:08.327Z,19.50
2019-02-17T17:34:35.478Z,20.80
2019-02-17T17:37:02.008Z,17.10
2019-02-17T17:39:28.851Z,23.67
2019-02-17T17:41:55.696Z,19.67
2019-02-17T17:44:22.531Z,24.03
2019-02-17T17:46:49.392Z,21.70
2019-02-17T17:49:19.332Z,23.73
2019-02-17T17:51:44.064Z,22.60
2019-02-17T17:54:10.821Z,25.07
2019-02-17T17:56:37.364Z,22.97
2019-02-17T17:59:04.184Z,28.03
2019-02-17T18:01:30.734Z,24.37
2019-02-17T18:03:57.572Z,25.57
2019-02-17T18:06:24.414Z,24.00
2019-02-17T18:08:50.951Z,25.03
2019-02-17T18:11:17.587Z,26.63
2019-02-17T18:13:44.326Z,24.70
2019-02-17T18:16:10.866Z,30.67
2019-02-17T18:18:37.406Z,30.53
2019-02-17T18:21:04.237Z,27.87
2019-02-17T18:23:31.076Z,30.03
2019-02-17T18:25:57.618Z,28.20
2019-02-17T18:28:24.454Z,28.70
2019-02-17T18:30:50.976Z,29.50
2019-02-17T18:33:17.649Z,31.93
2019-02-17T18:35:45.496Z,30.87
2019-02-17T18:38:12.131Z,29.93
2019-02-17T18:40:45.364Z,28.80
2019-02-17T18:43:07.087Z,37.57
2019-02-17T18:45:33.884Z,34.67
2019-02-17T18:48:00.772Z,30.97
2019-02-17T18:50:27.564Z,32.00
2019-02-17T18:52:54.097Z,34.00
2019-02-17T18:55:20.635Z,33.83
2019-02-17T18:57:50.831Z,35.27
2019-02-17T19:00:16.143Z,30.83
2019-02-17T19:02:43.004Z,35.23
2019-02-17T19:05:09.840Z,37.23
2019-02-17T19:07:36.376Z,37.73
2019-02-17T19:10:02.916Z,34.67
2019-02-17T19:12:29.756Z,37.80
2019-02-17T19:14:56.287Z,34.97
2019-02-17T19:17:22.822Z,38.53
2019-02-17T19:19:49.666Z,36.23
2019-02-17T19:22:16.425Z,40.57
2019-02-17T19:24:43.354Z,38.33
2019-02-17T19:27:09.884Z,38.70
2019-02-17T19:29:36.419Z,38.10
2019-02-17T19:32:02.957Z,36.13
2019-02-17T19:34:29.791Z,36.23
2019-02-17T19:36:56.633Z,41.17
2019-02-17T19:39:23.167Z,43.97
2019-02-17T19:41:50.010Z,40.30
2019-02-17T19:44:16.857Z,39.47
2019-02-17T19:46:44.838Z,42.40
2019-02-17T19:49:11.769Z,39.77
2019-02-17T19:51:38.298Z,43.53
2019-02-17T19:54:04.845Z,40.50
2019-02-17T19:56:31.369Z,43.30
2019-02-17T19:58:57.901Z,38.70
2019-02-17T20:01:24.437Z,36.33
2019-02-17T20:03:50.974Z,36.30
2019-02-17T20:06:17.511Z,36.50
2019-02-17T20:08:44.045Z,33.33
2019-02-17T20:11:10.573Z,38.33
2019-02-17T20:13:37.212Z,53.77
2019-02-17T20:16:03.954Z,65.47
2019-02-17T20:18:30.488Z,80.90
2019-02-17T20:20:57.032Z,61.10
2019-02-17T20:23:23.595Z,58.87
2019-02-17T20:25:50.406Z,55.20
2019-02-17T20:28:16.930Z,48.73
2019-02-17T20:30:43.463Z,35.20
2019-02-17T20:33:10.001Z,42.27
2019-02-17T20:35:36.847Z,39.10
2019-02-17T20:38:03.683Z,42.10
2019-02-17T20:40:30.201Z,33.43
2019-02-17T20:42:56.757Z,34.30
2019-02-17T20:45:23.899Z,31.63
2019-02-17T20:47:52.660Z,26.33
2019-02-17T20:50:20.478Z,28.20
2019-02-17T20:52:47.510Z,31.23
2019-02-17T20:55:14.042Z,27.27
2019-02-17T20:57:40.872Z,30.33
2019-02-17T21:00:07.418Z,29.77
2019-02-17T21:02:34.247Z,33.57
2019-02-17T21:05:00.784Z,29.07
2019-02-17T21:07:27.623Z,33.77
2019-02-17T21:09:54.162Z,30.60
2019-02-17T21:12:21.001Z,42.03
2019-02-17T21:14:47.844Z,36.97
2019-02-17T21:17:14.694Z,36.20
2019-02-17T21:19:41.529Z,35.97
2019-02-17T21:22:08.062Z,36.93
2019-02-17T21:24:34.593Z,39.03
2019-02-17T21:27:01.440Z,41.00
2019-02-17T21:29:27.970Z,39.47
2019-02-17T21:31:56.755Z,38.17
2019-02-17T21:34:23.805Z,40.17
2019-02-17T21:36:50.649Z,37.53
2019-02-17T21:39:17.547Z,38.50
2019-02-17T21:41:44.329Z,39.47
2019-02-17T21:44:11.487Z,42.87
2019-02-17T21:46:38.320Z,44.93
2019-02-17T21:49:04.853Z,43.03
2019-02-17T21:51:31.784Z,44.07
2019-02-17T21:53:58.542Z,40.63
2019-02-17T21:56:25.076Z,42.37
2019-02-17T21:58:51.917Z,46.60
2019-02-17T22:01:19.251Z,42.60
2019-02-17T22:03:46.211Z,40.87
2019-02-17T22:06:13.065Z,43.63
2019-02-17T22:08:39.586Z,44.97
2019-02-17T22:11:06.432Z,42.63
2019-02-17T22:13:32.966Z,44.73
2019-02-17T22:15:59.810Z,42.83
2019-02-17T22:18:26.629Z,42.70
2019-02-17T22:20:53.287Z,46.77
2019-02-17T22:23:20.028Z,44.10
2019-02-17T22:25:46.569Z,44.00
2019-02-17T22:28:13.404Z,43.33
2019-02-17T22:30:39.944Z,46.53
2019-02-17T22:33:06.469Z,47.43
2019-02-17T22:35:33.012Z,44.53
2019-02-17T22:37:59.537Z,40.10
2019-02-17T22:40:26.080Z,47.67
2019-02-17T22:42:52.610Z,43.40
2019-02-17T22:45:19.457Z,47.00
2019-02-17T22:47:46.030Z,42.70
2019-02-17T22:50:12.518Z,46.37
2019-02-17T22:52:39.358Z,50.93
2019-02-17T22:55:06.201Z,47.47
2019-02-17T22:57:32.740Z,47.87
2019-02-17T22:59:59.280Z,46.97
2019-02-17T23:02:26.114Z,46.40
2019-02-17T23:04:52.955Z,49.03
2019-02-17T23:07:19.487Z,44.03
2019-02-17T23:09:46.021Z,41.70
2019-02-17T23:12:12.881Z,45.70
2019-02-17T23:14:39.405Z,42.17
2019-02-17T23:17:06.239Z,42.73
2019-02-17T23:19:32.773Z,41.07
2019-02-17T23:21:59.312Z,42.60
2019-02-17T23:24:25.846Z,48.40
2019-02-17T23:26:52.381Z,49.63
2019-02-17T23:29:19.524Z,46.40
2019-02-17T23:31:47.307Z,51.07
2019-02-17T23:34:15.131Z,50.53
2019-02-17T23:36:42.820Z,54.17
2019-02-17T23:39:10.314Z,48.83
2019-02-17T23:41:37.866Z,58.83
2019-02-17T23:44:05.637Z,56.80
2019-02-17T23:46:32.332Z,50.63
2019-02-17T23:48:59.174Z,55.80
2019-02-17T23:51:26.018Z,59.70
2019-02-17T23:53:52.861Z,56.87
2019-02-17T23:56:19.702Z,55.70
2019-02-17T23:58:46.547Z,56.47
